createdAt,value
2023-02-23T00:00:28.946Z,100088.84
2023-02-23T00:03:30.431Z,100084.59
2023-02-23T00:06:34.090Z,100088.16
2023-02-23T00:09:35.940Z,100086.47
2023-02-23T00:12:38.305Z,100088.31
2023-02-23T00:15:40.382Z,100087.47
2023-02-23T00:18:53.987Z,100084.75
2023-02-23T00:21:58.739Z,100089.34
2023-02-23T00:25:01.319Z,100082.25
2023-02-23T00:28:03.159Z,100087.66
2023-02-23T00:31:04.851Z,100092.22
2023-02-23T00:34:07.371Z,100085.09
2023-02-23T00:37:08.911Z,100085.09
2023-02-23T00:40:16.388Z,100086.97
2023-02-23T00:43:19.820Z,100085.25
2023-02-23T00:46:26.952Z,100088.84
2023-02-23T00:49:28.663Z,100094.41
2023-02-23T00:52:30.404Z,100098.81
2023-02-23T00:55:31.998Z,100101.72
2023-02-23T00:58:33.591Z,100097.28
2023-02-23T01:01:38.828Z,100099.84
2023-02-23T01:04:40.390Z,100102.69
2023-02-23T01:07:42.015Z,100105.41
2023-02-23T01:10:44.846Z,100107.28
2023-02-23T01:13:47.788Z,100107.28
2023-02-23T01:16:49.407Z,100101.00
2023-02-23T01:19:50.929Z,100110.16
2023-02-23T01:22:52.515Z,100106.44
2023-02-23T01:25:53.985Z,100101.16
2023-02-23T01:28:58.379Z,100104.75
2023-02-23T01:32:00.859Z,100109.31
2023-02-23T01:35:12.587Z,100114.72
2023-02-23T01:38:14.086Z,100114.72
2023-02-23T01:41:16.855Z,100116.59
2023-02-23T01:44:18.540Z,100114.06
2023-02-23T01:47:20.357Z,100120.31
2023-02-23T01:50:23.791Z,100117.63
2023-02-23T01:53:27.882Z,100113.03
2023-02-23T01:56:36.450Z,100108.63
2023-02-23T01:59:42.651Z,100109.63
2023-02-23T02:02:44.129Z,100126.94
2023-02-23T02:05:48.341Z,100124.22
2023-02-23T02:08:55.059Z,100131.31
2023-02-23T02:11:56.575Z,100131.50
2023-02-23T02:14:59.990Z,100134.22
2023-02-23T02:18:33.399Z,100134.22
2023-02-23T02:21:53.822Z,100131.66
2023-02-23T02:24:55.482Z,100135.38
2023-02-23T02:27:58.167Z,100128.25
2023-02-23T02:31:26.765Z,100130.81
2023-02-23T02:34:49.992Z,100123.69
2023-02-23T02:38:04.446Z,100123.00
2023-02-23T02:41:18.775Z,100127.41
2023-02-23T02:44:29.289Z,100122.84
2023-02-23T02:47:44.636Z,100119.44
2023-02-23T02:50:58.068Z,100117.59
2023-02-23T02:54:10.539Z,100113.84
2023-02-23T02:57:13.733Z,100116.91
2023-02-23T03:00:41.855Z,100114.00
2023-02-23T03:04:04.749Z,100117.75
2023-02-23T03:07:48.253Z,100120.47
2023-02-23T03:11:29.063Z,100117.75
2023-02-23T03:15:05.259Z,100118.91
2023-02-23T03:18:47.717Z,100117.91
2023-02-23T03:22:07.552Z,100123.50
2023-02-23T03:25:33.727Z,100127.91
2023-02-23T03:29:14.181Z,100127.06
2023-02-23T03:33:02.933Z,100120.78
2023-02-23T03:36:30.189Z,100123.66
2023-02-23T03:39:56.398Z,100129.91
2023-02-23T03:43:20.130Z,100127.38
2023-02-23T03:46:43.840Z,100116.53
2023-02-23T03:50:06.515Z,100123.84
2023-02-23T03:53:30.392Z,100114.84
2023-02-23T03:56:54.706Z,100113.00
2023-02-23T04:00:21.206Z,100127.38
2023-02-23T04:03:44.312Z,100124.69
2023-02-23T04:07:05.978Z,100123.50
2023-02-23T04:10:28.576Z,100121.63
2023-02-23T04:13:33.404Z,100125.03
2023-02-23T04:16:35.102Z,100116.91
2023-02-23T04:19:36.669Z,100115.72
2023-02-23T04:22:38.735Z,100126.22
2023-02-23T04:25:40.332Z,100123.38
2023-02-23T04:28:42.878Z,100118.59
2023-02-23T04:31:44.525Z,100128.28
2023-02-23T04:34:46.136Z,100131.69
2023-02-23T04:37:47.672Z,100129.50
2023-02-23T04:40:49.810Z,100130.16
2023-02-23T04:43:51.324Z,100134.41
2023-02-23T04:46:52.806Z,100128.69
2023-02-23T04:49:54.308Z,100127.66
2023-02-23T04:52:56.673Z,100124.59
2023-02-23T04:55:58.358Z,100134.28
2023-02-23T04:59:00.252Z,100131.56
2023-02-23T05:02:02.349Z,100136.84
2023-02-23T05:05:04.156Z,100138.69
2023-02-23T05:08:06.167Z,100140.38
2023-02-23T05:11:08.116Z,100134.81
2023-02-23T05:14:10.242Z,100136.66
2023-02-23T05:17:11.922Z,100145.66
2023-02-23T05:20:14.399Z,100135.66
2023-02-23T05:23:15.865Z,100137.53
2023-02-23T05:26:17.418Z,100132.09
2023-02-23T05:29:19.187Z,100142.94
2023-02-23T05:32:20.667Z,100139.34
2023-02-23T05:35:22.643Z,100143.94
2023-02-23T05:38:25.062Z,100140.38
2023-02-23T05:41:26.555Z,100142.41
2023-02-23T05:44:28.231Z,100145.97
2023-02-23T05:47:31.054Z,100145.13
2023-02-23T05:50:34.306Z,100138.00
2023-02-23T05:53:36.791Z,100137.16
2023-02-23T05:56:38.346Z,100132.75
2023-02-23T05:59:40.206Z,100141.72
2023-02-23T06:02:42.005Z,100139.88
2023-02-23T06:05:49.688Z,100131.56
2023-02-23T06:08:52.737Z,100136.00
2023-02-23T06:11:54.281Z,100135.81
2023-02-23T06:14:56.775Z,100136.66
2023-02-23T06:17:58.328Z,100138.19
2023-02-23T06:21:01.345Z,100141.56
2023-02-23T06:24:02.844Z,100144.97
2023-02-23T06:27:05.277Z,100141.25
2023-02-23T06:30:07.160Z,100147.34
2023-02-23T06:33:08.656Z,100150.75
2023-02-23T06:36:10.361Z,100145.31
2023-02-23T06:39:12.267Z,100159.59
2023-02-23T06:42:14.736Z,100156.91
2023-02-23T06:45:16.752Z,100161.44
2023-02-23T06:48:18.219Z,100166.88
2023-02-23T06:51:19.970Z,100165.16
2023-02-23T06:54:21.674Z,100175.00
2023-02-23T06:57:23.135Z,100179.56
2023-02-23T07:00:24.627Z,100181.63
2023-02-23T07:03:26.360Z,100190.59
2023-02-23T07:06:27.834Z,100196.00
2023-02-23T07:09:30.739Z,100193.47
2023-02-23T07:12:32.476Z,100197.00
2023-02-23T07:15:36.434Z,100199.72
2023-02-23T07:18:37.917Z,100196.34
2023-02-23T07:21:39.401Z,100197.34
2023-02-23T07:24:40.915Z,100190.06
2023-02-23T07:27:42.534Z,100198.38
2023-02-23T07:30:44.105Z,100195.81
2023-02-23T07:33:45.615Z,100199.38
2023-02-23T07:36:47.158Z,100204.13
2023-02-23T07:39:48.676Z,100210.41
2023-02-23T07:42:50.180Z,100199.56
2023-02-23T07:45:51.847Z,100201.56
2023-02-23T07:48:53.731Z,100203.25
2023-02-23T07:51:55.191Z,100206.16
2023-02-23T07:54:57.640Z,100203.59
2023-02-23T07:57:59.166Z,100220.88
2023-02-23T08:01:00.823Z,100219.03
2023-02-23T08:04:02.368Z,100218.19
2023-02-23T08:07:03.954Z,100217.34
2023-02-23T08:10:05.948Z,100221.03
2023-02-23T08:13:07.816Z,100222.06
2023-02-23T08:16:09.544Z,100235.63
2023-02-23T08:19:11.125Z,100236.63
2023-02-23T08:22:12.655Z,100229.50
2023-02-23T08:25:14.242Z,100229.66
2023-02-23T08:28:15.876Z,100236.81
2023-02-23T08:31:21.221Z,100239.66
2023-02-23T08:34:23.497Z,100229.84
2023-02-23T08:37:25.025Z,100236.09
2023-02-23T08:40:26.667Z,100239.84
2023-02-23T08:43:29.138Z,100238.81
2023-02-23T08:46:31.016Z,100238.97
2023-02-23T08:49:33.296Z,100243.53
2023-02-23T08:52:34.795Z,100241.84
2023-02-23T08:55:38.142Z,100248.13
2023-02-23T08:58:39.699Z,100241.00
2023-02-23T09:01:42.381Z,100251.00
2023-02-23T09:04:43.983Z,100252.84
2023-02-23T09:07:46.790Z,100250.13
2023-02-23T09:10:48.286Z,100256.75
2023-02-23T09:13:49.990Z,100267.53
2023-02-23T09:16:51.450Z,100264.44
2023-02-23T09:19:53.216Z,100267.38
2023-02-23T09:22:55.089Z,100274.63
2023-02-23T09:25:56.610Z,100278.44
2023-02-23T09:29:00.490Z,100279.38
2023-02-23T09:32:02.022Z,100278.94
2023-02-23T09:35:03.700Z,100284.06
2023-02-23T09:38:07.075Z,100283.09
2023-02-23T09:41:25.553Z,100288.22
2023-02-23T09:44:32.904Z,100285.38
2023-02-23T09:47:59.822Z,100286.75
2023-02-23T09:51:05.867Z,100287.28
2023-02-23T09:54:12.774Z,100288.84
2023-02-23T09:57:29.825Z,100288.53
2023-02-23T10:00:39.491Z,100293.75
2023-02-23T10:03:48.550Z,100293.63
2023-02-23T10:07:03.553Z,100297.03
2023-02-23T10:10:27.656Z,100291.44
2023-02-23T10:13:51.450Z,100292.13
2023-02-23T10:17:17.012Z,100296.56
2023-02-23T10:20:28.078Z,100300.97
2023-02-23T10:23:45.361Z,100301.81
2023-02-23T10:26:54.156Z,100305.34
2023-02-23T10:30:00.560Z,100305.34
2023-02-23T10:33:16.930Z,100306.22
2023-02-23T10:36:27.971Z,100305.34
2023-02-23T10:39:31.403Z,100307.91
2023-02-23T10:42:33.064Z,100297.09
2023-02-23T10:45:41.346Z,100298.78
2023-02-23T10:48:43.449Z,100304.38
2023-02-23T10:51:45.470Z,100300.63
2023-02-23T10:54:51.620Z,100305.91
2023-02-23T10:58:08.463Z,100306.75
2023-02-23T11:01:10.175Z,100296.75
2023-02-23T11:04:20.804Z,100301.00
2023-02-23T11:07:33.073Z,100294.59
2023-02-23T11:10:34.637Z,100297.13
2023-02-23T11:13:37.642Z,100289.84
2023-02-23T11:16:39.678Z,100294.28
2023-02-23T11:19:41.386Z,100287.00
2023-02-23T11:22:43.180Z,100286.16
2023-02-23T11:25:46.427Z,100291.41
2023-02-23T11:28:53.433Z,100287.84
2023-02-23T11:31:58.498Z,100283.13
2023-02-23T11:35:18.914Z,100284.81
2023-02-23T11:38:29.161Z,100279.25
2023-02-23T11:41:32.828Z,100280.09
2023-02-23T11:44:34.352Z,100278.22
2023-02-23T11:47:40.298Z,100274.34
2023-02-23T11:50:48.369Z,100277.75
2023-02-23T11:53:49.952Z,100274.19
2023-02-23T11:56:53.970Z,100273.88
2023-02-23T11:59:58.478Z,100272.88
2023-02-23T12:03:01.396Z,100270.84
2023-02-23T12:06:03.094Z,100269.00
2023-02-23T12:09:23.945Z,100260.69
2023-02-23T12:12:30.969Z,100262.41
2023-02-23T12:15:54.261Z,100260.69
2023-02-23T12:19:22.880Z,100258.81
2023-02-23T12:22:32.933Z,100257.13
2023-02-23T12:25:49.496Z,100250.69
2023-02-23T12:29:04.102Z,100255.44
2023-02-23T12:32:17.819Z,100246.31
2023-02-23T12:35:33.290Z,100252.56
2023-02-23T12:38:48.636Z,100248.16
2023-02-23T12:42:02.474Z,100253.72
2023-02-23T12:45:06.821Z,100249.34
2023-02-23T12:48:18.646Z,100252.19
2023-02-23T12:51:29.838Z,100248.63
2023-02-23T12:54:32.723Z,100252.38
2023-02-23T12:57:51.304Z,100246.25
2023-02-23T13:01:03.924Z,100248.97
2023-02-23T13:04:34.064Z,100258.97
2023-02-23T13:08:04.754Z,100254.53
2023-02-23T13:11:27.594Z,100257.41
2023-02-23T13:14:53.016Z,100256.53
2023-02-23T13:18:23.575Z,100254.84
2023-02-23T13:21:37.389Z,100254.84
2023-02-23T13:24:44.864Z,100252.28
2023-02-23T13:27:52.704Z,100258.72
2023-02-23T13:30:54.923Z,100252.63
2023-02-23T13:33:58.417Z,100255.19
2023-02-23T13:37:03.478Z,100259.59
2023-02-23T13:40:29.073Z,100255.88
2023-02-23T13:43:39.316Z,100254.16
2023-02-23T13:47:17.483Z,100256.53
2023-02-23T13:50:30.866Z,100249.28
2023-02-23T13:53:40.935Z,100256.41
2023-02-23T13:56:46.851Z,100250.97
2023-02-23T13:59:49.553Z,100253.53
2023-02-23T14:02:51.351Z,100257.94
2023-02-23T14:05:59.215Z,100252.38
2023-02-23T14:09:09.548Z,100248.50
2023-02-23T14:12:11.156Z,100255.75
2023-02-23T14:15:28.222Z,100254.44
2023-02-23T14:18:33.104Z,100260.69
2023-02-23T14:21:49.826Z,100257.00
2023-02-23T14:25:29.040Z,100256.81
2023-02-23T14:28:34.271Z,100259.53
2023-02-23T14:31:36.058Z,100255.81
2023-02-23T14:34:59.930Z,100256.47
2023-02-23T14:38:07.253Z,100258.03
2023-02-23T14:41:11.941Z,100260.72
2023-02-23T14:44:31.762Z,100262.28
2023-02-23T14:47:44.591Z,100258.56
2023-02-23T14:50:46.233Z,100259.41
2023-02-23T14:53:47.799Z,100257.53
2023-02-23T14:56:52.276Z,100258.38
2023-02-23T14:59:58.386Z,100260.09
2023-02-23T15:03:06.154Z,100257.41
2023-02-23T15:06:09.728Z,100263.66
2023-02-23T15:09:19.739Z,100259.94
2023-02-23T15:12:27.051Z,100263.50
2023-02-23T15:15:30.557Z,100263.50
2023-02-23T15:18:37.391Z,100253.66
2023-02-23T15:21:40.346Z,100262.34
2023-02-23T15:24:47.107Z,100264.03
2023-02-23T15:27:48.982Z,100266.88
2023-02-23T15:30:51.727Z,100266.75
2023-02-23T15:33:55.679Z,100277.59
2023-02-23T15:37:03.368Z,100273.00
2023-02-23T15:40:10.704Z,100272.84
2023-02-23T15:43:12.337Z,100270.84
2023-02-23T15:46:23.936Z,100280.34
2023-02-23T15:49:34.054Z,100274.44
2023-02-23T15:52:44.062Z,100281.38
2023-02-23T15:55:47.945Z,100283.78
2023-02-23T15:58:56.989Z,100274.47
2023-02-23T16:02:02.757Z,100271.41
2023-02-23T16:05:22.985Z,100279.06
2023-02-23T16:08:25.790Z,100285.06
2023-02-23T16:11:36.019Z,100282.03
2023-02-23T16:14:49.833Z,100282.38
2023-02-23T16:18:03.853Z,100279.19
2023-02-23T16:21:06.721Z,100279.00
2023-02-23T16:24:13.806Z,100277.81
2023-02-23T16:27:15.959Z,100286.81
2023-02-23T16:30:18.526Z,100277.66
2023-02-23T16:33:25.891Z,100271.22
2023-02-23T16:36:38.509Z,100271.91
2023-02-23T16:39:40.032Z,100272.94
2023-02-23T16:42:41.549Z,100275.47
2023-02-23T16:45:43.399Z,100279.03
2023-02-23T16:48:44.977Z,100278.03
2023-02-23T16:51:46.521Z,100278.88
2023-02-23T16:54:53.737Z,100278.88
2023-02-23T16:58:00.990Z,100279.56
2023-02-23T17:01:02.812Z,100283.28
2023-02-23T17:04:04.377Z,100277.00
2023-02-23T17:07:05.880Z,100283.44
2023-02-23T17:10:08.678Z,100287.00
2023-02-23T17:13:20.061Z,100286.84
2023-02-23T17:16:21.770Z,100289.72
2023-02-23T17:19:24.662Z,100290.91
2023-02-23T17:22:28.957Z,100295.31
2023-02-23T17:25:30.839Z,100284.44
2023-02-23T17:28:32.432Z,100288.03
2023-02-23T17:31:34.235Z,100292.59
2023-02-23T17:34:36.016Z,100290.75
2023-02-23T17:37:37.927Z,100302.25
2023-02-23T17:40:39.471Z,100299.56
2023-02-23T17:43:41.378Z,100300.44
2023-02-23T17:46:42.919Z,100302.25
2023-02-23T17:49:44.369Z,100296.84
2023-02-23T17:52:46.887Z,100305.66
2023-02-23T17:55:48.348Z,100300.25
2023-02-23T17:58:50.416Z,100304.69
2023-02-23T18:01:52.024Z,100310.94
2023-02-23T18:04:53.584Z,100306.34
2023-02-23T18:07:55.085Z,100304.50
2023-02-23T18:10:57.600Z,100306.22
2023-02-23T18:13:59.094Z,100313.19
2023-02-23T18:17:00.940Z,100317.56
2023-02-23T18:20:03.544Z,100314.84
2023-02-23T18:23:04.997Z,100314.72
2023-02-23T18:26:12.262Z,100317.94
2023-02-23T18:29:13.771Z,100313.34
2023-02-23T18:32:15.337Z,100315.91
2023-02-23T18:35:17.019Z,100313.00
2023-02-23T18:38:18.678Z,100318.13
2023-02-23T18:41:20.344Z,100316.06
2023-02-23T18:44:22.957Z,100314.38
2023-02-23T18:47:24.589Z,100304.56
2023-02-23T18:50:26.584Z,100310.00
2023-02-23T18:53:28.089Z,100311.16
2023-02-23T18:56:29.660Z,100313.88
2023-02-23T18:59:32.268Z,100316.59
2023-02-23T19:02:33.740Z,100314.88
2023-02-23T19:05:37.464Z,100316.75
2023-02-23T19:08:38.925Z,100320.31
2023-02-23T19:11:42.524Z,100313.19
2023-02-23T19:14:49.761Z,100313.34
2023-02-23T19:17:51.523Z,100317.09
2023-02-23T19:20:53.009Z,100316.25
2023-02-23T19:23:57.650Z,100311.81
2023-02-23T19:26:59.133Z,100308.25
2023-02-23T19:30:00.661Z,100305.53
2023-02-23T19:33:03.930Z,100310.28
2023-02-23T19:36:07.384Z,100313.84
2023-02-23T19:39:15.615Z,100312.16
2023-02-23T19:42:19.276Z,100320.28
2023-02-23T19:45:21.765Z,100324.03
2023-02-23T19:48:25.264Z,100325.72
2023-02-23T19:51:26.943Z,100322.31
2023-02-23T19:54:33.811Z,100330.44
2023-02-23T19:57:35.308Z,100333.16
2023-02-23T20:00:36.864Z,100345.88
2023-02-23T20:03:39.526Z,100339.63
2023-02-23T20:06:47.129Z,100349.44
2023-02-23T20:09:48.777Z,100350.63
2023-02-23T20:12:50.232Z,100352.50
2023-02-23T20:16:08.943Z,100355.06
2023-02-23T20:19:11.491Z,100361.66
2023-02-23T20:22:13.045Z,100364.38
2023-02-23T20:25:15.617Z,100359.94
2023-02-23T20:28:17.678Z,100365.38
2023-02-23T20:31:26.417Z,100374.34
2023-02-23T20:34:28.244Z,100369.13
2023-02-23T20:37:29.953Z,100373.69
2023-02-23T20:40:31.435Z,100373.69
2023-02-23T20:43:32.961Z,100374.69
2023-02-23T20:46:34.582Z,100371.13
2023-02-23T20:49:36.745Z,100368.41
2023-02-23T20:52:39.618Z,100362.16
2023-02-23T20:55:41.150Z,100364.00
2023-02-23T20:58:43.558Z,100358.75
2023-02-23T21:01:45.204Z,100367.22
2023-02-23T21:04:46.800Z,100369.91
2023-02-23T21:07:49.742Z,100371.78
2023-02-23T21:10:51.246Z,100371.94
2023-02-23T21:13:53.048Z,100365.50
2023-02-23T21:16:54.730Z,100360.94
2023-02-23T21:19:56.543Z,100369.06
2023-02-23T21:22:58.089Z,100363.47
2023-02-23T21:26:06.991Z,100351.63
2023-02-23T21:29:14.659Z,100354.16
2023-02-23T21:32:16.762Z,100364.00
2023-02-23T21:35:19.470Z,100360.13
2023-02-23T21:38:20.981Z,100354.84
2023-02-23T21:41:22.871Z,100353.81
2023-02-23T21:44:24.731Z,100345.69
2023-02-23T21:47:26.279Z,100348.41
2023-02-23T21:50:27.823Z,100356.38
2023-02-23T21:53:29.997Z,100345.53
2023-02-23T21:56:32.698Z,100350.13
2023-02-23T21:59:34.757Z,100342.81
2023-02-23T22:02:38.268Z,100338.22
2023-02-23T22:05:40.220Z,100329.25
2023-02-23T22:08:47.226Z,100338.41
2023-02-23T22:11:48.805Z,100341.13
2023-02-23T22:14:50.399Z,100325.84
2023-02-23T22:17:51.867Z,100333.13
2023-02-23T22:21:00.705Z,100333.00
2023-02-23T22:24:05.284Z,100329.72
2023-02-23T22:27:07.687Z,100332.44
2023-02-23T22:30:12.113Z,100330.75
2023-02-23T22:33:13.808Z,100330.06
2023-02-23T22:36:18.465Z,100332.78
2023-02-23T22:39:20.155Z,100319.38
2023-02-23T22:42:24.311Z,100321.41
2023-02-23T22:45:26.006Z,100319.53
2023-02-23T22:48:28.730Z,100310.72
2023-02-23T22:51:30.707Z,100313.44
2023-02-23T22:54:35.227Z,100309.19
2023-02-23T22:57:36.913Z,100309.19
2023-02-23T23:00:38.380Z,100306.63
2023-02-23T23:03:45.580Z,100307.50
2023-02-23T23:06:47.634Z,100305.78
2023-02-23T23:09:49.402Z,100303.25
2023-02-23T23:12:51.447Z,100296.94
2023-02-23T23:15:55.227Z,100287.97
2023-02-23T23:19:04.916Z,100289.69
2023-02-23T23:22:13.151Z,100277.28
2023-02-23T23:25:14.865Z,100276.59
2023-02-23T23:28:16.541Z,100271.16
2023-02-23T23:31:22.633Z,100268.47
2023-02-23T23:34:25.200Z,100270.47
2023-02-23T23:37:29.230Z,100268.63
2023-02-23T23:40:35.590Z,100262.50
2023-02-23T23:43:37.598Z,100267.91
2023-02-23T23:46:42.737Z,100267.91
2023-02-23T23:49:44.367Z,100257.25
2023-02-23T23:52:45.904Z,100260.09
2023-02-23T23:55:47.353Z,100260.09
2023-02-23T23:58:50.242Z,100255.69
